createdAt,value
2018-08-19T00:00:05.052Z,4.50
2018-08-19T00:02:32.165Z,5.97
2018-08-19T00:05:12.645Z,3.80
2018-08-19T00:07:40.089Z,3.77
2018-08-19T00:10:07.212Z,4.20
2018-08-19T00:12:42.551Z,4.10
2018-08-19T00:15:09.685Z,5.87
2018-08-19T00:17:36.777Z,4.10
2018-08-19T00:20:06.608Z,3.90
2018-08-19T00:22:33.921Z,3.50
2018-08-19T00:25:01.017Z,3.87
2018-08-19T00:27:28.112Z,3.03
2018-08-19T00:29:55.201Z,3.83
2018-08-19T00:32:22.708Z,3.47
2018-08-19T00:34:49.804Z,3.77
2018-08-19T00:37:16.929Z,3.60
2018-08-19T00:39:44.038Z,4.20
2018-08-19T00:42:11.187Z,2.90
2018-08-19T00:44:40.114Z,3.57
2018-08-19T00:47:07.481Z,5.07
2018-08-19T00:49:34.940Z,3.27
2018-08-19T00:52:02.458Z,3.20
2018-08-19T00:54:30.749Z,3.87
2018-08-19T00:56:58.833Z,3.20
2018-08-19T00:59:28.341Z,4.10
2018-08-19T01:01:55.462Z,3.20
2018-08-19T01:04:22.969Z,3.80
2018-08-19T01:06:52.673Z,2.87
2018-08-19T01:09:22.729Z,3.90
2018-08-19T01:11:49.817Z,3.43
2018-08-19T01:14:16.901Z,3.70
2018-08-19T01:16:43.989Z,3.17
2018-08-19T01:19:11.089Z,3.80
2018-08-19T01:21:42.595Z,3.70
2018-08-19T01:24:10.733Z,3.47
2018-08-19T01:26:39.025Z,2.40
2018-08-19T01:29:07.308Z,3.40
2018-08-19T01:31:34.573Z,2.80
2018-08-19T01:34:07.201Z,4.80
2018-08-19T01:36:35.449Z,3.40
2018-08-19T01:39:04.865Z,3.77
2018-08-19T01:41:31.971Z,3.10
2018-08-19T01:44:11.527Z,2.80
2018-08-19T01:46:41.069Z,3.73
2018-08-19T01:49:10.637Z,3.30
2018-08-19T01:51:40.250Z,2.80
2018-08-19T01:54:13.293Z,3.00
2018-08-19T01:56:45.230Z,3.90
2018-08-19T01:59:12.317Z,5.10
2018-08-19T02:01:46.737Z,3.67
2018-08-19T02:04:13.817Z,3.20
2018-08-19T02:06:41.814Z,3.67
2018-08-19T02:09:10.805Z,3.23
2018-08-19T02:11:37.949Z,4.17
2018-08-19T02:14:05.210Z,3.37
2018-08-19T02:16:32.334Z,3.80
2018-08-19T02:18:59.443Z,3.23
2018-08-19T02:21:26.551Z,3.50
2018-08-19T02:23:53.653Z,4.40
2018-08-19T02:26:25.642Z,3.37
2018-08-19T02:28:52.763Z,3.90
2018-08-19T02:31:19.862Z,3.50
2018-08-19T02:33:46.973Z,3.27
2018-08-19T02:36:14.072Z,3.73
2018-08-19T02:38:41.514Z,3.80
2018-08-19T02:41:08.624Z,3.57
2018-08-19T02:43:41.135Z,4.10
2018-08-19T02:46:08.290Z,4.00
2018-08-19T02:48:46.379Z,3.30
2018-08-19T02:51:17.532Z,3.83
2018-08-19T02:53:45.795Z,3.70
2018-08-19T02:56:13.577Z,3.83
2018-08-19T02:58:43.271Z,3.53
2018-08-19T03:01:11.161Z,4.13
2018-08-19T03:03:38.265Z,3.30
2018-08-19T03:06:10.817Z,2.90
2018-08-19T03:08:43.737Z,2.93
2018-08-19T03:11:11.521Z,4.93
2018-08-19T03:13:38.642Z,3.77
2018-08-19T03:16:06.413Z,3.77
2018-08-19T03:18:33.873Z,4.93
2018-08-19T03:21:00.974Z,4.60
2018-08-19T03:23:28.094Z,3.87
2018-08-19T03:25:55.250Z,4.37
2018-08-19T03:28:22.341Z,4.40
2018-08-19T03:31:05.384Z,3.80
2018-08-19T03:33:32.499Z,4.60
2018-08-19T03:35:59.610Z,3.70
2018-08-19T03:38:27.519Z,3.17
2018-08-19T03:40:55.565Z,4.57
2018-08-19T03:43:22.787Z,3.57
2018-08-19T03:45:49.869Z,4.37
2018-08-19T03:48:17.341Z,3.50
2018-08-19T03:50:44.454Z,4.37
2018-08-19T03:53:12.857Z,3.50
2018-08-19T03:55:40.078Z,3.90
2018-08-19T03:58:08.278Z,3.50
2018-08-19T04:00:40.059Z,4.53
2018-08-19T04:03:16.556Z,3.20
2018-08-19T04:05:46.346Z,3.73
2018-08-19T04:08:14.401Z,4.03
2018-08-19T04:10:42.681Z,3.57
2018-08-19T04:13:32.869Z,3.67
2018-08-19T04:16:01.041Z,3.67
2018-08-19T04:18:33.317Z,5.47
2018-08-19T04:21:02.314Z,3.77
2018-08-19T04:23:30.144Z,4.53
2018-08-19T04:25:57.185Z,3.60
2018-08-19T04:28:24.605Z,3.87
2018-08-19T04:30:53.185Z,4.70
2018-08-19T04:33:25.069Z,3.37
2018-08-19T04:35:53.051Z,4.67
2018-08-19T04:38:20.631Z,4.50
2018-08-19T04:40:47.746Z,4.23
2018-08-19T04:43:14.847Z,3.73
2018-08-19T04:45:41.948Z,3.80
2018-08-19T04:48:09.093Z,4.03
2018-08-19T04:50:36.177Z,4.30
2018-08-19T04:53:03.265Z,4.77
2018-08-19T04:55:30.416Z,4.17
2018-08-19T04:57:57.515Z,5.47
2018-08-19T05:00:24.633Z,4.17
2018-08-19T05:02:51.750Z,4.60
2018-08-19T05:05:18.869Z,4.87
2018-08-19T05:07:46.014Z,5.13
2018-08-19T05:10:13.137Z,5.30
2018-08-19T05:12:40.237Z,4.27
2018-08-19T05:15:07.340Z,4.47
2018-08-19T05:17:34.483Z,5.57
2018-08-19T05:20:11.751Z,5.53
2018-08-19T05:22:38.859Z,4.83
2018-08-19T05:25:05.953Z,4.97
2018-08-19T05:27:33.065Z,5.07
2018-08-19T05:30:00.497Z,5.13
2018-08-19T05:32:27.582Z,5.33
2018-08-19T05:34:54.669Z,5.27
2018-08-19T05:37:21.749Z,6.27
2018-08-19T05:39:57.312Z,4.43
2018-08-19T05:42:24.449Z,4.80
2018-08-19T05:44:51.829Z,4.23
2018-08-19T05:47:18.939Z,5.23
2018-08-19T05:49:47.226Z,5.83
2018-08-19T05:52:16.649Z,6.50
2018-08-19T05:54:51.501Z,5.47
2018-08-19T05:57:18.633Z,5.87
2018-08-19T05:59:47.200Z,5.83
2018-08-19T06:02:14.519Z,5.30
2018-08-19T06:04:41.839Z,5.03
2018-08-19T06:07:08.947Z,5.40
2018-08-19T06:09:42.106Z,4.90
2018-08-19T06:12:09.571Z,5.73
2018-08-19T06:14:36.669Z,6.33
2018-08-19T06:17:04.161Z,6.77
2018-08-19T06:19:32.144Z,6.10
2018-08-19T06:21:59.357Z,5.90
2018-08-19T06:24:26.418Z,7.53
2018-08-19T06:26:53.529Z,5.97
2018-08-19T06:29:22.497Z,7.83
2018-08-19T06:31:49.653Z,6.10
2018-08-19T06:34:16.745Z,6.90
2018-08-19T06:36:43.850Z,6.93
2018-08-19T06:39:15.649Z,6.63
2018-08-19T06:41:42.736Z,6.83
2018-08-19T06:44:09.847Z,6.03
2018-08-19T06:46:36.965Z,5.90
2018-08-19T06:49:11.701Z,6.00
2018-08-19T06:51:43.405Z,5.03
2018-08-19T06:54:10.522Z,6.67
2018-08-19T06:56:37.629Z,6.07
2018-08-19T06:59:05.021Z,6.33
2018-08-19T07:01:32.130Z,6.13
2018-08-19T07:03:59.325Z,6.03
2018-08-19T07:06:26.362Z,5.87
2018-08-19T07:08:53.445Z,6.90
2018-08-19T07:11:20.554Z,6.23
2018-08-19T07:13:48.357Z,6.33
2018-08-19T07:16:17.573Z,5.13
2018-08-19T07:18:44.889Z,6.13
2018-08-19T07:21:11.906Z,4.97
2018-08-19T07:23:39.005Z,6.40
2018-08-19T07:26:06.129Z,5.10
2018-08-19T07:28:33.230Z,6.77
2018-08-19T07:31:00.309Z,5.60
2018-08-19T07:33:27.418Z,6.40
2018-08-19T07:35:54.518Z,6.57
2018-08-19T07:38:21.908Z,5.60
2018-08-19T07:40:49.018Z,6.90
2018-08-19T07:43:16.125Z,6.57
2018-08-19T07:45:43.226Z,10.13
2018-08-19T07:48:10.310Z,6.60
2018-08-19T07:50:37.380Z,5.50
2018-08-19T07:53:04.858Z,6.40
2018-08-19T07:55:31.941Z,6.53
2018-08-19T07:57:59.029Z,7.27
2018-08-19T08:00:31.829Z,6.30
2018-08-19T08:02:59.307Z,6.80
2018-08-19T08:05:31.865Z,5.87
2018-08-19T08:07:58.993Z,6.40
2018-08-19T08:10:26.079Z,7.53
2018-08-19T08:12:59.013Z,6.50
2018-08-19T08:15:26.150Z,6.93
2018-08-19T08:17:57.316Z,6.10
2018-08-19T08:20:24.739Z,6.47
2018-08-19T08:22:51.849Z,6.07
2018-08-19T08:25:18.931Z,5.63
2018-08-19T08:27:46.039Z,6.23
2018-08-19T08:30:13.171Z,5.80
2018-08-19T08:32:43.591Z,6.57
2018-08-19T08:35:16.815Z,5.47
2018-08-19T08:37:44.093Z,5.43
2018-08-19T08:40:11.605Z,5.23
2018-08-19T08:42:39.561Z,5.30
2018-08-19T08:45:07.374Z,6.60
2018-08-19T08:47:34.491Z,5.60
2018-08-19T08:50:01.639Z,6.50
2018-08-19T08:52:28.728Z,4.53
2018-08-19T08:55:00.864Z,6.37
2018-08-19T08:57:27.982Z,5.30
2018-08-19T08:59:55.250Z,5.40
2018-08-19T09:02:22.558Z,4.93
2018-08-19T09:04:50.801Z,4.97
2018-08-19T09:07:18.273Z,5.63
2018-08-19T09:09:46.253Z,5.03
2018-08-19T09:12:13.838Z,5.27
2018-08-19T09:14:41.472Z,4.50
2018-08-19T09:17:08.736Z,5.40
2018-08-19T09:19:35.817Z,4.93
2018-08-19T09:22:02.915Z,4.67
2018-08-19T09:24:30.013Z,5.87
2018-08-19T09:26:57.489Z,4.47
2018-08-19T09:29:24.561Z,5.03
2018-08-19T09:31:51.644Z,4.57
2018-08-19T09:34:18.747Z,4.87
2018-08-19T09:36:45.825Z,6.37
2018-08-19T09:39:12.926Z,4.10
2018-08-19T09:41:40.731Z,3.87
2018-08-19T09:44:07.809Z,4.20
2018-08-19T09:46:34.901Z,4.20
2018-08-19T09:49:01.997Z,4.37
2018-08-19T09:51:29.078Z,4.00
2018-08-19T09:54:00.193Z,4.40
2018-08-19T09:56:33.094Z,3.20
2018-08-19T09:59:04.503Z,3.33
2018-08-19T10:01:40.160Z,3.33
2018-08-19T10:04:13.269Z,4.80
2018-08-19T10:06:40.607Z,3.57
2018-08-19T10:09:07.861Z,3.53
2018-08-19T10:11:35.053Z,2.70
2018-08-19T10:14:03.299Z,3.70
2018-08-19T10:16:39.645Z,3.00
2018-08-19T10:19:06.747Z,3.33
2018-08-19T10:21:34.453Z,3.30
2018-08-19T10:24:11.885Z,3.70
2018-08-19T10:26:39.024Z,2.90
2018-08-19T10:29:06.478Z,2.80
2018-08-19T10:31:33.574Z,3.17
2018-08-19T10:34:00.653Z,2.93
2018-08-19T10:36:27.752Z,3.30
2018-08-19T10:38:54.839Z,3.87
2018-08-19T10:41:22.057Z,3.27
2018-08-19T10:43:49.160Z,3.70
2018-08-19T10:46:16.391Z,2.27
2018-08-19T10:48:43.377Z,2.63
2018-08-19T10:51:10.469Z,2.47
2018-08-19T10:53:37.542Z,2.47
2018-08-19T10:56:04.663Z,2.20
2018-08-19T10:58:31.778Z,2.47
2018-08-19T11:00:58.853Z,2.50
2018-08-19T11:03:25.948Z,2.53
2018-08-19T11:05:54.450Z,2.33
2018-08-19T11:08:21.540Z,2.83
2018-08-19T11:10:48.677Z,2.50
2018-08-19T11:13:17.640Z,2.27
2018-08-19T11:15:50.989Z,2.60
2018-08-19T11:18:23.933Z,2.23
2018-08-19T11:20:53.677Z,2.70
2018-08-19T11:23:22.124Z,2.80
2018-08-19T11:25:49.877Z,2.40
2018-08-19T11:28:31.981Z,2.23
2018-08-19T11:30:59.061Z,2.50
2018-08-19T11:33:33.562Z,2.27
2018-08-19T11:36:05.610Z,3.37
2018-08-19T11:38:32.857Z,2.83
2018-08-19T11:41:01.985Z,2.93
2018-08-19T11:43:29.984Z,2.60
2018-08-19T11:45:57.314Z,3.77
2018-08-19T11:48:24.391Z,2.87
2018-08-19T11:50:51.486Z,3.30
2018-08-19T11:53:18.585Z,2.70
2018-08-19T11:55:45.673Z,3.60
2018-08-19T11:58:27.847Z,2.80
2018-08-19T12:01:00.169Z,2.40
2018-08-19T12:03:27.501Z,2.70
2018-08-19T12:05:54.586Z,3.00
2018-08-19T12:08:22.126Z,2.37
2018-08-19T12:10:49.197Z,3.70
2018-08-19T12:13:16.297Z,2.83
2018-08-19T12:15:43.399Z,3.37
2018-08-19T12:18:10.530Z,3.03
2018-08-19T12:20:37.613Z,3.50
2018-08-19T12:23:05.479Z,3.30
2018-08-19T12:25:32.558Z,4.17
2018-08-19T12:27:59.643Z,3.00
2018-08-19T12:30:30.323Z,4.37
2018-08-19T12:33:09.053Z,3.60
2018-08-19T12:35:36.169Z,3.07
2018-08-19T12:38:03.265Z,3.73
2018-08-19T12:40:30.382Z,2.80
2018-08-19T12:43:03.773Z,3.83
2018-08-19T12:45:31.082Z,3.87
2018-08-19T12:47:58.169Z,4.37
2018-08-19T12:50:25.269Z,4.43
2018-08-19T12:52:52.346Z,4.53
2018-08-19T12:55:19.425Z,4.00
2018-08-19T12:57:51.451Z,4.10
2018-08-19T13:00:25.612Z,3.90
2018-08-19T13:02:52.988Z,3.97
2018-08-19T13:05:20.641Z,4.30
2018-08-19T13:07:47.917Z,4.00
2018-08-19T13:10:15.372Z,5.10
2018-08-19T13:12:47.053Z,3.93
2018-08-19T13:15:14.619Z,4.40
2018-08-19T13:17:41.737Z,4.13
2018-08-19T13:20:08.829Z,3.83
2018-08-19T13:22:48.536Z,4.27
2018-08-19T13:25:15.989Z,3.80
2018-08-19T13:27:43.109Z,3.73
2018-08-19T13:30:10.203Z,4.10
2018-08-19T13:32:37.313Z,4.13
2018-08-19T13:35:04.961Z,4.30
2018-08-19T13:37:32.423Z,5.43
2018-08-19T13:39:59.505Z,5.23
2018-08-19T13:42:26.582Z,4.73
2018-08-19T13:44:57.790Z,5.57
2018-08-19T13:47:29.725Z,4.97
2018-08-19T13:49:56.849Z,4.90
2018-08-19T13:52:23.992Z,3.77
2018-08-19T13:55:00.455Z,4.87
2018-08-19T13:57:27.860Z,4.50
2018-08-19T13:59:55.355Z,4.43
2018-08-19T14:02:22.501Z,4.73
2018-08-19T14:04:49.618Z,3.97
2018-08-19T14:07:16.756Z,4.30
2018-08-19T14:09:44.448Z,4.33
2018-08-19T14:12:11.872Z,4.53
2018-08-19T14:14:39.266Z,4.33
2018-08-19T14:17:07.378Z,3.73
2018-08-19T14:19:34.534Z,4.33
2018-08-19T14:22:01.778Z,5.07
2018-08-19T14:24:28.865Z,5.13
2018-08-19T14:26:55.945Z,4.90
2018-08-19T14:29:23.049Z,5.10
2018-08-19T14:31:50.146Z,5.30
2018-08-19T14:34:17.226Z,6.00
2018-08-19T14:36:44.317Z,5.83
2018-08-19T14:39:11.414Z,4.83
2018-08-19T14:41:38.490Z,4.70
2018-08-19T14:44:05.577Z,4.63
2018-08-19T14:46:33.276Z,6.03
2018-08-19T14:49:02.526Z,4.63
2018-08-19T14:51:43.717Z,5.03
2018-08-19T14:54:15.385Z,5.17
2018-08-19T14:56:42.466Z,5.60
2018-08-19T14:59:09.984Z,4.80
2018-08-19T15:01:37.099Z,4.97
2018-08-19T15:04:04.193Z,5.00
2018-08-19T15:06:33.310Z,5.70
2018-08-19T15:09:00.413Z,4.07
2018-08-19T15:11:27.547Z,4.87
2018-08-19T15:13:56.409Z,4.40
2018-08-19T15:16:23.501Z,4.53
2018-08-19T15:18:50.590Z,5.03
2018-08-19T15:21:17.719Z,4.00
2018-08-19T15:23:44.829Z,3.23
2018-08-19T15:26:11.965Z,4.20
2018-08-19T15:28:39.058Z,2.97
2018-08-19T15:31:08.957Z,3.63
2018-08-19T15:33:36.055Z,3.60
2018-08-19T15:36:03.139Z,3.00
2018-08-19T15:38:30.224Z,3.20
2018-08-19T15:40:57.338Z,3.20
2018-08-19T15:43:24.414Z,3.80
2018-08-19T15:45:51.500Z,2.90
2018-08-19T15:48:18.582Z,3.53
2018-08-19T15:50:45.673Z,3.73
2018-08-19T15:53:13.366Z,4.17
2018-08-19T15:55:40.446Z,3.33
2018-08-19T15:58:07.572Z,4.40
2018-08-19T16:00:37.345Z,3.93
2018-08-19T16:03:04.490Z,4.70
2018-08-19T16:05:31.590Z,3.50
2018-08-19T16:07:58.732Z,4.20
2018-08-19T16:10:25.843Z,3.87
2018-08-19T16:12:52.999Z,4.27
2018-08-19T16:15:26.637Z,4.47
2018-08-19T16:17:54.922Z,3.57
2018-08-19T16:20:22.377Z,4.00
2018-08-19T16:22:49.624Z,3.57
2018-08-19T16:25:17.109Z,3.77
2018-08-19T16:27:44.273Z,4.73
2018-08-19T16:30:11.358Z,4.10
2018-08-19T16:32:38.458Z,4.07
2018-08-19T16:35:05.863Z,5.07
2018-08-19T16:37:32.977Z,4.53
2018-08-19T16:40:00.394Z,6.53
2018-08-19T16:42:27.504Z,6.33
2018-08-19T16:44:54.601Z,6.73
2018-08-19T16:47:21.689Z,7.83
2018-08-19T16:49:50.313Z,5.90
2018-08-19T16:52:17.414Z,6.30
2018-08-19T16:54:44.497Z,5.83
2018-08-19T16:57:11.719Z,7.47
2018-08-19T16:59:38.689Z,7.37
2018-08-19T17:02:05.781Z,6.67
2018-08-19T17:04:35.497Z,7.67
2018-08-19T17:07:02.646Z,6.57
2018-08-19T17:09:29.725Z,7.07
2018-08-19T17:11:57.093Z,6.00
2018-08-19T17:14:24.181Z,6.97
2018-08-19T17:16:51.260Z,6.80
2018-08-19T17:19:18.435Z,5.70
2018-08-19T17:21:45.548Z,6.37
2018-08-19T17:24:12.702Z,5.67
2018-08-19T17:26:39.878Z,5.67
2018-08-19T17:29:12.958Z,6.17
2018-08-19T17:31:40.101Z,6.73
2018-08-19T17:34:12.813Z,7.77
2018-08-19T17:36:39.901Z,5.93
2018-08-19T17:39:11.763Z,5.33
2018-08-19T17:41:38.849Z,4.77
2018-08-19T17:44:05.929Z,6.03
2018-08-19T17:46:33.317Z,6.13
2018-08-19T17:49:00.396Z,6.10
2018-08-19T17:51:31.118Z,7.10
2018-08-19T17:53:58.218Z,5.30
2018-08-19T17:56:25.341Z,5.50
2018-08-19T17:58:54.759Z,5.30
2018-08-19T18:01:22.181Z,6.20
2018-08-19T18:03:49.257Z,5.80
2018-08-19T18:06:16.497Z,5.73
2018-08-19T18:08:49.401Z,6.07
2018-08-19T18:11:16.606Z,5.40
2018-08-19T18:13:49.687Z,5.97
2018-08-19T18:16:17.010Z,5.63
2018-08-19T18:18:44.833Z,7.07
2018-08-19T18:21:11.942Z,5.77
2018-08-19T18:23:42.767Z,4.77
2018-08-19T18:26:09.886Z,5.20
2018-08-19T18:28:37.000Z,7.13
2018-08-19T18:31:06.923Z,4.60
2018-08-19T18:33:51.552Z,5.10
2018-08-19T18:36:20.110Z,4.63
2018-08-19T18:38:47.214Z,4.13
2018-08-19T18:41:21.185Z,5.60
2018-08-19T18:43:57.529Z,3.73
2018-08-19T18:46:24.781Z,4.17
2018-08-19T18:49:00.370Z,3.27
2018-08-19T18:51:28.118Z,4.13
2018-08-19T18:53:55.341Z,3.33
2018-08-19T18:56:22.481Z,3.70
2018-08-19T18:58:49.640Z,4.63
2018-08-19T19:01:16.737Z,3.50
2018-08-19T19:03:43.849Z,3.00
2018-08-19T19:06:10.958Z,4.97
2018-08-19T19:08:38.065Z,4.83
2018-08-19T19:11:05.387Z,4.73
2018-08-19T19:13:35.220Z,4.63
2018-08-19T19:16:02.409Z,5.00
2018-08-19T19:18:29.798Z,3.97
2018-08-19T19:21:06.787Z,5.87
2018-08-19T19:23:36.169Z,4.93
2018-08-19T19:26:04.460Z,6.73
2018-08-19T19:28:31.736Z,5.83
2018-08-19T19:31:04.647Z,6.30
2018-08-19T19:33:31.810Z,5.50
2018-08-19T19:37:28.891Z,7.83
2018-08-19T19:40:01.915Z,6.27
2018-08-19T19:42:29.050Z,7.83
2018-08-19T19:44:58.338Z,6.30
2018-08-19T19:47:25.488Z,6.63
2018-08-19T19:49:58.529Z,7.80
2018-08-19T19:52:26.031Z,5.83
2018-08-19T19:54:53.195Z,7.17
2018-08-19T19:57:20.664Z,5.97
2018-08-19T19:59:47.809Z,6.10
2018-08-19T20:02:18.561Z,4.83
2018-08-19T20:04:49.938Z,4.57
2018-08-19T20:07:17.145Z,4.80
2018-08-19T20:09:44.375Z,4.73
2018-08-19T20:12:17.363Z,4.50
2018-08-19T20:14:48.221Z,4.70
2018-08-19T20:17:15.353Z,4.83
2018-08-19T20:19:42.439Z,3.70
2018-08-19T20:22:14.281Z,4.43
2018-08-19T20:24:41.365Z,5.93
2018-08-19T20:27:08.443Z,4.87
2018-08-19T20:29:35.553Z,4.47
2018-08-19T20:32:02.847Z,6.00
2018-08-19T20:34:30.308Z,4.97
2018-08-19T20:36:57.433Z,4.60
2018-08-19T20:39:24.650Z,6.23
2018-08-19T20:41:51.755Z,4.47
2018-08-19T20:44:18.841Z,5.90
2018-08-19T20:46:50.537Z,4.93
2018-08-19T20:49:17.979Z,5.77
2018-08-19T20:51:45.066Z,6.40
2018-08-19T20:54:12.141Z,6.10
2018-08-19T20:56:39.234Z,5.00
2018-08-19T20:59:06.309Z,6.60
2018-08-19T21:01:33.384Z,4.87
2018-08-19T21:04:00.457Z,6.50
2018-08-19T21:06:27.557Z,5.93
2018-08-19T21:08:54.630Z,6.33
2018-08-19T21:11:21.721Z,6.83
2018-08-19T21:13:48.796Z,6.43
2018-08-19T21:16:15.877Z,4.53
2018-08-19T21:18:42.949Z,6.23
2018-08-19T21:21:10.051Z,5.23
2018-08-19T21:23:37.130Z,6.57
2018-08-19T21:26:04.211Z,5.60
2018-08-19T21:28:31.285Z,6.77
2018-08-19T21:30:59.805Z,5.70
2018-08-19T21:33:26.889Z,4.87
2018-08-19T21:35:55.177Z,6.17
2018-08-19T21:38:22.585Z,5.27
2018-08-19T21:40:52.194Z,5.97
2018-08-19T21:43:19.285Z,5.60
2018-08-19T21:45:46.705Z,6.20
2018-08-19T21:48:15.053Z,4.43
2018-08-19T21:50:42.309Z,5.37
2018-08-19T21:53:11.217Z,4.17
2018-08-19T21:55:39.643Z,4.67
2018-08-19T21:58:07.015Z,3.70
2018-08-19T22:03:17.982Z,3.63
2018-08-19T22:05:45.505Z,3.97
2018-08-19T22:08:12.745Z,4.30
2018-08-19T22:10:41.353Z,4.33
2018-08-19T22:13:08.429Z,5.33
2018-08-19T22:15:37.505Z,3.23
2018-08-19T22:18:05.988Z,4.30
2018-08-19T22:20:33.472Z,3.33
2018-08-19T22:23:00.565Z,3.60
2018-08-19T22:25:27.653Z,4.80
2018-08-19T22:27:54.757Z,3.87
2018-08-19T22:30:23.661Z,4.03
2018-08-19T22:32:50.773Z,3.40
2018-08-19T22:35:17.848Z,4.00
2018-08-19T22:37:44.986Z,3.57
2018-08-19T22:40:12.085Z,3.23
2018-08-19T22:42:39.153Z,3.40
2018-08-19T22:45:06.445Z,3.00
2018-08-19T22:47:33.574Z,3.50
2018-08-19T22:50:00.857Z,3.33
2018-08-19T22:52:27.944Z,3.23
2018-08-19T22:55:01.037Z,3.73
2018-08-19T22:57:28.369Z,2.80
2018-08-19T22:59:55.465Z,4.00
2018-08-19T23:02:22.833Z,2.97
2018-08-19T23:04:49.910Z,3.93
2018-08-19T23:07:19.065Z,2.63
2018-08-19T23:09:46.161Z,3.47
2018-08-19T23:12:13.245Z,2.50
2018-08-19T23:14:52.116Z,3.20
2018-08-19T23:17:19.242Z,3.30
2018-08-19T23:19:48.541Z,3.80
2018-08-19T23:22:15.665Z,2.70
2018-08-19T23:24:42.769Z,4.03
2018-08-19T23:27:10.230Z,3.10
2018-08-19T23:29:37.293Z,4.03
2018-08-19T23:32:04.365Z,3.57
2018-08-19T23:34:31.461Z,3.20
2018-08-19T23:36:58.577Z,2.50
2018-08-19T23:39:25.660Z,4.27
2018-08-19T23:41:52.764Z,3.60
2018-08-19T23:44:19.879Z,4.83
2018-08-19T23:46:46.989Z,3.23
2018-08-19T23:49:14.093Z,4.23
2018-08-19T23:51:41.195Z,3.30
2018-08-19T23:54:14.290Z,4.80
2018-08-19T23:56:41.376Z,4.13
2018-08-19T23:59:08.486Z,5.80
